Time;durP1;ratioP1;P1;durP2;ratioP2;P2;SDS_P1;SDS_P2;PMS_P1;PMS_P2;Temp;Humidity;BMP_temperature;BMP_pressure;BME280_temperature;BME280_humidity;BME280_pressure;Samples;Min_cycle;Max_cycle;Signal;HPM_P1;HPM_P2
2021/03/06 05:00:36;;;;;;;2.75;2.55;;;-0.20;99.90;;;;;;5973090;23;20691;31
2021/03/06 05:03:03;;;;;;;3.65;3.42;;;-0.10;99.90;;;;;;4874760;29;20215;-70
2021/03/06 05:05:29;;;;;;;3.40;3.20;;;0.00;99.90;;;;;;4877734;29;20208;-70
2021/03/06 05:07:55;;;;;;;4.10;2.83;;;0.00;99.90;;;;;;4881256;29;20311;-70
2021/03/06 05:10:23;;;;;;;2.50;2.40;;;0.10;99.90;;;;;;4882136;29;20598;-70
2021/03/06 05:12:49;;;;;;;3.75;2.67;;;0.20;99.90;;;;;;4899536;29;20385;-70
2021/03/06 05:15:15;;;;;;;5.20;2.90;;;0.20;99.90;;;;;;4898865;29;20528;-70
2021/03/06 05:17:42;;;;;;;3.00;2.80;;;0.30;99.90;;;;;;4901213;29;20199;-74
2021/03/06 05:20:09;;;;;;;4.13;2.20;;;0.30;99.90;;;;;;4900343;29;20246;-73
2021/03/06 05:22:35;;;;;;;8.88;3.63;;;0.40;99.90;;;;;;4900204;29;20646;-70
2021/03/06 05:25:02;;;;;;;2.67;2.50;;;0.50;99.90;;;;;;4898580;29;20255;-72
2021/03/06 05:27:28;;;;;;;4.40;2.88;;;0.50;99.90;;;;;;4899451;29;20614;-71
2021/03/06 05:29:54;;;;;;;4.45;2.63;;;0.60;99.90;;;;;;4898510;29;20692;-72
2021/03/06 05:32:20;;;;;;;2.47;2.25;;;0.60;99.90;;;;;;4898950;29;20230;-72
2021/03/06 05:34:48;;;;;;;3.15;2.90;;;0.70;99.90;;;;;;4899452;29;20566;-72
2021/03/06 05:37:14;;;;;;;4.50;3.13;;;0.70;99.90;;;;;;4899324;29;20216;-72
2021/03/06 05:39:40;;;;;;;3.45;2.83;;;0.80;99.90;;;;;;4899004;29;20212;-72
2021/03/06 05:42:09;;;;;;;3.67;3.25;;;0.80;99.90;;;;;;4899645;29;20235;-72
2021/03/06 05:44:36;;;;;;;4.95;2.55;;;0.90;99.90;;;;;;4899040;29;20673;-71
2021/03/06 05:47:03;;;;;;;4.40;2.60;;;0.90;99.90;;;;;;4899161;29;20207;-71
2021/03/06 05:49:29;;;;;;;3.20;2.80;;;0.90;99.90;;;;;;4899165;29;20239;-69
2021/03/06 05:51:57;;;;;;;3.08;2.88;;;0.90;99.90;;;;;;4898811;29;20232;-70
2021/03/06 05:54:26;;;;;;;4.75;3.38;;;1.00;99.90;;;;;;4898218;29;20207;-69
2021/03/06 05:56:54;;;;;;;3.00;2.80;;;1.00;99.90;;;;;;4898809;29;20207;-69
2021/03/06 05:59:22;;;;;;;3.33;2.83;;;1.00;99.90;;;;;;4896910;29;20215;-69
2021/03/06 06:01:50;;;;;;;2.85;2.65;;;1.00;99.90;;;;;;4898570;29;20235;-69
2021/03/06 06:04:17;;;;;;;5.00;2.88;;;1.00;99.90;;;;;;4897888;29;20211;-71
2021/03/06 06:06:44;;;;;;;3.63;3.40;;;1.10;99.90;;;;;;4884422;29;20290;-69
2021/03/06 06:09:11;;;;;;;3.00;2.80;;;1.10;99.90;;;;;;4897593;29;20227;-69
2021/03/06 06:11:38;;;;;;;3.80;3.25;;;1.10;99.90;;;;;;4898677;29;20622;-69
2021/03/06 06:14:05;;;;;;;5.30;4.72;;;1.10;99.90;;;;;;4897777;29;20693;-70
2021/03/06 06:16:32;;;;;;;3.75;3.30;;;1.20;99.90;;;;;;4898120;29;20705;-70
2021/03/06 06:19:01;;;;;;;3.92;3.50;;;1.20;99.90;;;;;;4897786;29;20203;-70
2021/03/06 06:21:41;;;;;;;5.88;3.80;;;1.20;99.90;;;;;;4898121;29;20231;-73
2021/03/06 06:24:09;;;;;;;4.38;3.05;;;1.30;99.90;;;;;;4898133;29;20255;-74
2021/03/06 06:26:36;;;;;;;3.35;3.15;;;1.30;99.90;;;;;;4899183;29;20578;-73
2021/03/06 06:29:02;;;;;;;7.20;3.75;;;1.40;99.90;;;;;;4897947;29;20615;-73
2021/03/06 06:31:29;;;;;;;6.47;3.28;;;1.40;99.90;;;;;;4898907;29;20234;-74
2021/03/06 06:33:56;;;;;;;3.90;3.45;;;1.50;99.90;;;;;;4898039;29;20289;-73
2021/03/06 06:36:36;;;;;;;3.22;3.00;;;1.50;99.90;;;;;;4898617;29;20226;-74
2021/03/06 06:39:04;;;;;;;5.18;4.10;;;1.50;99.90;;;;;;4897942;29;20211;-70
2021/03/06 06:41:51;;;;;;;4.95;4.03;;;1.60;99.90;;;;;;4898258;29;20235;-70
2021/03/06 06:44:18;;;;;;;4.68;4.18;;;1.60;99.90;;;;;;4886922;29;20207;-70
2021/03/06 06:46:44;;;;;;;7.85;4.68;;;1.70;99.90;;;;;;4898033;29;20207;-70
2021/03/06 06:49:10;;;;;;;5.35;3.90;;;1.80;99.90;;;;;;4897463;29;20235;-70
2021/03/06 06:51:37;;;;;;;17.33;5.40;;;1.80;99.90;;;;;;4897922;29;20582;-69
2021/03/06 06:54:09;;;;;;;6.47;5.32;;;1.80;99.90;;;;;;4897050;29;20207;-69
2021/03/06 06:56:36;;;;;;;5.50;5.00;;;1.80;99.90;;;;;;4879524;29;20302;-69
2021/03/06 06:59:04;;;;;;;7.82;4.90;;;1.90;99.90;;;;;;4894528;29;20207;-69
2021/03/06 07:01:31;;;;;;;5.68;5.10;;;1.90;99.90;;;;;;4897599;29;20250;-68
2021/03/06 07:04:02;;;;;;;4.15;3.85;;;2.00;99.90;;;;;;4897631;29;20283;-69
2021/03/06 07:06:28;;;;;;;4.93;4.45;;;2.00;99.90;;;;;;4897674;29;20219;-69
2021/03/06 07:09:05;;;;;;;4.60;4.05;;;2.10;99.90;;;;;;4897282;29;20231;-68
2021/03/06 07:11:31;;;;;;;5.60;4.30;;;2.10;99.90;;;;;;4897192;29;20231;-69
2021/03/06 07:13:57;;;;;;;5.93;5.32;;;2.10;99.90;;;;;;4897093;29;20615;-68
2021/03/06 07:16:24;;;;;;;4.28;4.07;;;2.10;99.90;;;;;;4896467;29;20207;-68
2021/03/06 07:18:59;;;;;;;6.88;4.70;;;2.20;99.90;;;;;;4896780;29;20199;-69
2021/03/06 07:21:25;;;;;;;7.32;6.25;;;2.20;99.90;;;;;;4896681;29;20273;-71
2021/03/06 07:23:52;;;;;;;6.53;5.93;;;2.20;99.90;;;;;;4896013;29;20211;-71
2021/03/06 07:26:19;;;;;;;12.88;9.27;;;2.30;99.90;;;;;;4896485;29;20274;-71
2021/03/06 07:28:45;;;;;;;6.13;4.93;;;2.40;99.90;;;;;;4896331;29;20258;-70
2021/03/06 07:31:12;;;;;;;7.82;4.85;;;2.40;99.90;;;;;;4897162;29;20677;-69
2021/03/06 07:33:42;;;;;;;5.35;4.82;;;2.50;99.90;;;;;;4897588;29;20219;-68
2021/03/06 07:36:10;;;;;;;5.63;5.20;;;2.60;99.90;;;;;;4897038;29;20201;-69
2021/03/06 07:38:37;;;;;;;5.07;4.60;;;2.60;99.90;;;;;;4896560;29;20215;-68
2021/03/06 07:41:05;;;;;;;5.55;5.13;;;2.70;99.90;;;;;;4898091;29;20227;-69
2021/03/06 07:43:36;;;;;;;5.90;5.03;;;2.70;99.90;;;;;;4896424;29;20271;-70
2021/03/06 07:46:02;;;;;;;5.28;4.88;;;2.70;99.90;;;;;;4897185;29;20294;-70
2021/03/06 07:48:37;;;;;;;5.18;4.78;;;2.80;99.90;;;;;;4896638;29;20230;-70
2021/03/06 07:51:05;;;;;;;7.05;4.65;;;2.80;99.90;;;;;;4881182;29;20227;-70
2021/03/06 07:53:31;;;;;;;8.77;4.80;;;2.90;99.90;;;;;;4878498;29;20216;-69
2021/03/06 07:55:57;;;;;;;7.60;6.78;;;2.90;99.90;;;;;;4896160;29;20207;-67
2021/03/06 07:58:24;;;;;;;7.00;5.60;;;3.00;99.90;;;;;;4895518;29;20203;-68
2021/03/06 08:00:53;;;;;;;4.30;4.00;;;3.00;99.90;;;;;;4896884;29;20259;-67
2021/03/06 08:03:39;;;;;;;5.10;4.70;;;3.00;99.90;;;;;;4896469;29;20203;-67
2021/03/06 08:06:17;;;;;;;6.45;5.10;;;3.10;99.90;;;;;;4897048;29;20287;-68
2021/03/06 08:08:53;;;;;;;5.38;4.45;;;3.20;99.90;;;;;;4879395;29;20236;-68
2021/03/06 08:11:20;;;;;;;8.77;4.88;;;3.20;99.90;;;;;;4896818;29;20234;-69
2021/03/06 08:13:48;;;;;;;6.32;5.00;;;3.20;99.90;;;;;;4896224;29;20533;-68
2021/03/06 08:16:39;;;;;;;7.43;5.70;;;3.30;99.90;;;;;;4896546;29;20210;-68
2021/03/06 08:19:27;;;;;;;5.75;5.30;;;3.50;99.90;;;;;;4883971;29;20235;-67
2021/03/06 08:21:56;;;;;;;7.53;4.53;;;3.70;99.90;;;;;;4896361;29;20231;-67
2021/03/06 08:24:30;;;;;;;5.22;4.40;;;3.90;99.90;;;;;;4896270;29;20234;-67
2021/03/06 08:27:27;;;;;;;4.35;3.95;;;4.00;99.90;;;;;;4896879;29;20207;-67
2021/03/06 08:29:57;;;;;;;6.10;4.25;;;4.10;99.90;;;;;;4852334;29;20221;-68
2021/03/06 08:32:37;;;;;;;5.10;4.50;;;4.30;99.90;;;;;;4888533;29;20628;-68
2021/03/06 08:35:21;;;;;;;5.22;3.85;;;4.30;99.90;;;;;;4877456;29;20367;-67
2021/03/06 08:37:50;;;;;;;6.72;4.05;;;4.40;99.90;;;;;;4888286;29;20207;-66
2021/03/06 08:40:23;;;;;;;4.65;4.25;;;4.40;99.90;;;;;;4893171;29;20246;-67
2021/03/06 08:42:51;;;;;;;4.25;3.95;;;4.50;99.90;;;;;;4882078;29;20239;-67
2021/03/06 08:45:21;;;;;;;6.57;4.00;;;4.60;99.90;;;;;;4881675;29;20219;-68
2021/03/06 08:47:48;;;;;;;7.15;3.50;;;4.70;99.90;;;;;;4881840;29;20216;-68
2021/03/06 08:50:17;;;;;;;4.00;3.70;;;4.80;99.90;;;;;;4881703;29;20323;-68
2021/03/06 08:52:57;;;;;;;3.75;3.45;;;4.80;99.90;;;;;;4899531;29;20211;-68
2021/03/06 08:55:29;;;;;;;6.13;4.32;;;4.80;99.90;;;;;;4899428;29;20234;-69
2021/03/06 08:57:55;;;;;;;4.82;3.15;;;4.90;99.90;;;;;;4881782;29;20241;-68
2021/03/06 09:00:27;;;;;;;3.92;3.60;;;4.90;99.90;;;;;;4899191;29;20204;-68
2021/03/06 09:02:54;;;;;;;6.25;3.80;;;5.00;99.90;;;;;;4899360;29;20214;-68
2021/03/06 09:05:25;;;;;;;4.07;3.78;;;5.00;99.90;;;;;;4898897;29;20263;-68
2021/03/06 09:07:54;;;;;;;3.42;3.22;;;5.10;99.90;;;;;;4899519;29;20677;-68
2021/03/06 09:10:24;;;;;;;4.60;4.30;;;5.10;99.90;;;;;;4899002;29;20231;-68
2021/03/06 09:12:52;;;;;;;9.05;4.10;;;5.20;99.90;;;;;;4899433;29;20614;-69
2021/03/06 09:15:41;;;;;;;4.50;3.65;;;5.20;99.90;;;;;;4898584;29;20200;-69
2021/03/06 09:18:09;;;;;;;3.30;3.10;;;5.30;99.90;;;;;;4897567;29;20210;-69
2021/03/06 09:20:57;;;;;;;6.53;4.28;;;5.40;99.90;;;;;;4898879;29;20363;-69
2021/03/06 09:23:27;;;;;;;6.13;5.40;;;5.40;99.90;;;;;;4899377;29;20215;-69
2021/03/06 09:25:53;;;;;;;4.97;3.70;;;5.40;99.90;;;;;;4899136;29;20218;-69
2021/03/06 09:28:23;;;;;;;12.88;4.20;;;5.50;99.90;;;;;;4898913;29;20618;-69
2021/03/06 09:30:50;;;;;;;4.60;4.03;;;5.50;99.90;;;;;;4899268;29;20230;-69
2021/03/06 09:33:24;;;;;;;4.55;4.13;;;5.50;99.90;;;;;;4898862;29;20215;-69
2021/03/06 09:35:58;;;;;;;4.55;3.88;;;5.50;99.90;;;;;;4899735;29;20211;-69
2021/03/06 09:38:25;;;;;;;4.47;4.10;;;5.40;99.90;;;;;;4899889;29;20304;-69
2021/03/06 09:40:51;;;;;;;4.65;4.25;;;5.50;99.90;;;;;;4899024;29;20227;-69
2021/03/06 09:43:36;;;;;;;4.93;4.00;;;5.50;99.90;;;;;;4899230;29;20666;-69
2021/03/06 09:46:11;;;;;;;5.55;5.05;;;5.50;99.90;;;;;;4898618;29;20576;-69
2021/03/06 09:48:37;;;;;;;3.83;2.85;;;5.50;99.90;;;;;;4898901;29;20256;-69
2021/03/06 09:51:04;;;;;;;5.40;3.28;;;5.60;99.90;;;;;;4899015;29;20742;-68
2021/03/06 09:53:31;;;;;;;2.67;2.47;;;5.60;99.90;;;;;;4896975;29;20728;-68
2021/03/06 09:56:09;;;;;;;4.28;2.92;;;5.60;99.90;;;;;;4898330;29;20245;-68
2021/03/06 09:58:36;;;;;;;3.50;3.13;;;5.60;99.90;;;;;;4898672;29;20287;-68
2021/03/06 10:01:16;;;;;;;2.92;2.72;;;5.70;99.90;;;;;;4898690;29;20294;-68
2021/03/06 10:03:44;;;;;;;2.60;2.40;;;5.80;99.90;;;;;;4898745;29;20346;-69
2021/03/06 10:06:12;;;;;;;3.30;3.20;;;5.70;99.90;;;;;;4899286;29;20710;-69
2021/03/06 10:08:46;;;;;;;3.00;2.78;;;5.60;99.90;;;;;;4898720;29;20223;-70
2021/03/06 10:11:13;;;;;;;2.95;2.65;;;5.50;99.90;;;;;;4898767;29;20532;-69
2021/03/06 10:13:41;;;;;;;5.38;3.05;;;5.50;99.90;;;;;;4897767;29;20227;-69
2021/03/06 10:16:08;;;;;;;3.03;2.47;;;5.60;99.90;;;;;;4898816;29;20203;-70
2021/03/06 10:18:37;;;;;;;3.47;3.08;;;5.70;99.90;;;;;;4897556;29;20254;-69
2021/03/06 10:21:13;;;;;;;2.92;2.72;;;5.80;99.90;;;;;;4895814;29;20302;-70
2021/03/06 10:23:40;;;;;;;2.38;2.28;;;6.00;99.90;;;;;;4890097;29;20211;-70
2021/03/06 10:26:21;;;;;;;2.80;2.60;;;6.20;99.90;;;;;;4896492;29;20211;-70
2021/03/06 10:28:48;;;;;;;2.20;2.10;;;6.20;99.90;;;;;;4896892;29;20230;-70
2021/03/06 10:31:35;;;;;;;4.28;3.10;;;6.20;99.90;;;;;;4897562;29;20235;-69
2021/03/06 10:34:18;;;;;;;3.10;2.90;;;6.30;99.90;;;;;;4897607;29;20266;-68
2021/03/06 10:36:45;;;;;;;4.38;3.15;;;6.30;99.90;;;;;;4895648;29;20215;-70
2021/03/06 10:39:17;;;;;;;4.00;2.67;;;6.40;99.90;;;;;;4896326;29;20662;-69
2021/03/06 10:41:44;;;;;;;4.10;4.00;;;6.50;99.90;;;;;;4897957;29;20231;-69
2021/03/06 10:44:10;;;;;;;5.65;2.90;;;6.60;99.90;;;;;;4896862;29;20230;-69
2021/03/06 10:46:36;;;;;;;3.67;3.47;;;6.60;99.90;;;;;;4897875;29;20238;-68
2021/03/06 10:49:04;;;;;;;4.18;3.80;;;6.60;99.90;;;;;;4897225;29;20635;-69
2021/03/06 10:51:43;;;;;;;3.78;3.58;;;6.70;99.90;;;;;;4897255;29;20223;-69
2021/03/06 10:54:10;;;;;;;4.30;3.75;;;6.80;99.90;;;;;;4893885;29;20211;-69
2021/03/06 10:56:38;;;;;;;3.28;3.08;;;6.70;99.90;;;;;;4897234;29;20216;-69
2021/03/06 10:59:04;;;;;;;4.50;3.33;;;6.70;99.90;;;;;;4881581;29;20195;-69
2021/03/06 11:01:32;;;;;;;3.00;2.90;;;6.70;99.90;;;;;;4896818;29;20239;-69
2021/03/06 11:03:59;;;;;;;3.25;2.58;;;6.80;99.90;;;;;;4887440;29;20969;-69
2021/03/06 11:06:25;;;;;;;2.85;2.22;;;6.80;99.90;;;;;;4897525;29;20203;-69
2021/03/06 11:09:00;;;;;;;2.65;2.55;;;6.80;99.90;;;;;;4896814;29;20658;-69
2021/03/06 11:11:27;;;;;;;8.07;7.28;;;6.80;99.90;;;;;;4896969;29;20226;-69
2021/03/06 11:13:54;;;;;;;3.38;2.90;;;6.70;99.90;;;;;;4894156;29;20211;-69
2021/03/06 11:16:37;;;;;;;2.70;2.50;;;6.60;99.90;;;;;;4895813;29;20210;-70
2021/03/06 11:19:04;;;;;;;3.15;2.95;;;6.60;99.90;;;;;;4896441;29;20242;-70
2021/03/06 11:21:30;;;;;;;3.40;3.30;;;6.50;99.90;;;;;;4896999;29;20311;-69
2021/03/06 11:23:56;;;;;;;3.17;2.97;;;6.50;99.90;;;;;;4896408;29;20211;-70
2021/03/06 11:26:22;;;;;;;3.67;3.45;;;6.50;99.90;;;;;;4897468;29;20305;-69
2021/03/06 11:28:49;;;;;;;2.75;2.65;;;6.50;99.90;;;;;;4896927;29;20303;-72
2021/03/06 11:31:16;;;;;;;3.78;3.47;;;6.60;99.90;;;;;;4892433;29;20228;-72
2021/03/06 11:33:42;;;;;;;4.18;3.67;;;6.70;99.90;;;;;;4896784;29;20203;-71
2021/03/06 11:36:08;;;;;;;4.35;4.05;;;6.70;99.90;;;;;;4896906;29;20274;-71
2021/03/06 11:38:34;;;;;;;4.18;3.97;;;6.70;99.90;;;;;;4897559;29;20227;-71
2021/03/06 11:41:00;;;;;;;4.32;4.13;;;6.50;99.90;;;;;;4897150;29;20253;-73
2021/03/06 11:43:27;;;;;;;3.60;3.30;;;6.50;99.90;;;;;;4896985;29;20222;-73
2021/03/06 11:45:53;;;;;;;3.90;3.60;;;6.50;99.90;;;;;;4896342;29;20207;-72
2021/03/06 11:48:20;;;;;;;3.70;3.33;;;6.40;99.90;;;;;;4895566;29;20211;-72
2021/03/06 11:50:49;;;;;;;3.78;2.85;;;6.30;99.90;;;;;;4895674;29;20693;-72
2021/03/06 11:53:16;;;;;;;4.22;3.92;;;6.30;99.90;;;;;;4896776;29;20468;-72
2021/03/06 11:55:42;;;;;;;4.32;4.03;;;6.40;99.90;;;;;;4897426;29;20267;-71
2021/03/06 11:58:08;;;;;;;3.78;3.45;;;6.30;99.90;;;;;;4897070;29;20295;-71
2021/03/06 12:00:36;;;;;;;4.55;4.25;;;6.30;99.90;;;;;;4896642;29;20330;-71
2021/03/06 12:03:03;;;;;;;8.43;4.00;;;6.40;99.90;;;;;;4897569;29;20642;-70
2021/03/06 12:05:30;;;;;;;4.88;4.30;;;6.40;99.90;;;;;;4896216;29;20206;-71
2021/03/06 12:07:56;;;;;;;4.78;4.38;;;6.40;99.90;;;;;;4897063;29;20218;-71
2021/03/06 12:10:25;;;;;;;9.02;5.43;;;6.40;99.90;;;;;;4896260;29;20227;-71
2021/03/06 12:12:51;;;;;;;6.75;4.53;;;6.40;99.90;;;;;;4896956;29;20215;-71
2021/03/06 12:15:19;;;;;;;6.60;4.10;;;6.40;99.90;;;;;;4896317;29;20710;-71
2021/03/06 12:17:46;;;;;;;5.22;3.08;;;6.30;99.90;;;;;;4900859;29;20633;-71
2021/03/06 12:20:13;;;;;;;3.92;3.55;;;6.30;99.90;;;;;;4900772;29;20211;-71
2021/03/06 12:22:40;;;;;;;8.00;5.57;;;6.30;99.90;;;;;;4900346;29;20218;-71
2021/03/06 12:25:09;;;;;;;16.33;8.73;;;6.40;99.90;;;;;;4899937;29;20262;-72
2021/03/06 12:27:35;;;;;;;3.95;3.60;;;6.50;99.90;;;;;;4901218;29;20279;-71
2021/03/06 12:30:02;;;;;;;5.95;5.40;;;6.50;99.90;;;;;;4899423;29;20227;-70
2021/03/06 12:32:28;;;;;;;6.45;3.58;;;6.60;99.90;;;;;;4899975;29;20239;-71
2021/03/06 12:34:55;;;;;;;4.95;3.40;;;6.70;99.90;;;;;;4900028;29;20207;-71
2021/03/06 12:37:21;;;;;;;3.13;3.03;;;6.80;99.90;;;;;;4900542;29;20222;-71
2021/03/06 12:39:48;;;;;;;4.43;4.00;;;6.70;99.90;;;;;;4899580;29;20549;-70
2021/03/06 12:42:14;;;;;;;3.35;3.15;;;6.80;99.90;;;;;;4899862;29;20239;-70
2021/03/06 12:44:41;;;;;;;5.13;4.70;;;6.80;99.90;;;;;;4899254;29;20232;-70
2021/03/06 12:47:07;;;;;;;5.97;3.15;;;6.80;99.90;;;;;;4899929;29;20574;-70
2021/03/06 12:49:33;;;;;;;5.57;3.10;;;6.70;99.90;;;;;;4899585;29;20278;-70
2021/03/06 12:51:59;;;;;;;3.50;3.10;;;6.60;99.90;;;;;;4900010;29;20239;-70
2021/03/06 12:54:26;;;;;;;4.45;3.00;;;6.60;99.90;;;;;;4899308;29;20230;-71
2021/03/06 12:56:53;;;;;;;3.22;3.03;;;6.50;99.90;;;;;;4900324;29;20211;-70
2021/03/06 12:59:19;;;;;;;2.42;2.33;;;6.40;99.90;;;;;;4899088;29;20570;-70
2021/03/06 13:01:45;;;;;;;3.30;2.20;;;6.40;99.90;;;;;;4899862;29;20330;-72
2021/03/06 13:04:11;;;;;;;3.00;2.80;;;6.40;99.90;;;;;;4899577;29;20324;-72
2021/03/06 13:06:37;;;;;;;4.95;3.47;;;6.50;99.90;;;;;;4900145;29;20210;-72
2021/03/06 13:09:04;;;;;;;3.22;3.08;;;6.60;99.90;;;;;;4899166;29;20238;-72
2021/03/06 13:11:30;;;;;;;2.95;2.50;;;6.70;99.90;;;;;;4899403;29;20686;-72
2021/03/06 13:13:57;;;;;;;3.10;2.90;;;6.80;99.90;;;;;;4898581;29;20219;-72
2021/03/06 13:16:23;;;;;;;4.63;2.78;;;6.90;99.90;;;;;;4899421;29;20211;-72
2021/03/06 13:18:50;;;;;;;3.28;3.00;;;6.90;99.90;;;;;;4899287;29;20239;-72
2021/03/06 13:21:17;;;;;;;5.88;2.90;;;6.90;99.90;;;;;;4899796;29;20239;-72
2021/03/06 13:23:43;;;;;;;2.97;2.78;;;6.90;99.90;;;;;;4898669;29;20620;-71
2021/03/06 13:26:09;;;;;;;1.92;1.83;;;6.90;99.90;;;;;;4899448;29;20215;-72
2021/03/06 13:28:36;;;;;;;2.85;2.53;;;7.00;99.90;;;;;;4898613;29;20256;-72
2021/03/06 13:31:03;;;;;;;2.97;2.88;;;7.10;99.90;;;;;;4898866;29;20235;-72
2021/03/06 13:33:29;;;;;;;3.75;2.90;;;7.30;99.90;;;;;;4898959;29;20215;-72
2021/03/06 13:35:55;;;;;;;4.03;2.80;;;7.40;99.90;;;;;;4898802;29;20282;-72
2021/03/06 13:38:22;;;;;;;2.70;2.50;;;7.40;99.90;;;;;;4899197;29;20207;-72
2021/03/06 13:40:48;;;;;;;2.63;2.40;;;7.50;99.90;;;;;;4899056;29;20578;-72
2021/03/06 13:43:14;;;;;;;2.70;2.60;;;7.50;99.90;;;;;;4898136;29;20219;-72
2021/03/06 13:45:40;;;;;;;2.58;2.15;;;7.40;99.90;;;;;;4898903;29;20211;-72
2021/03/06 13:48:08;;;;;;;4.82;2.35;;;7.40;99.90;;;;;;4899369;29;20211;-72
2021/03/06 13:50:35;;;;;;;2.83;1.35;;;7.40;99.90;;;;;;4898605;29;20235;-72
2021/03/06 13:53:02;;;;;;;2.08;1.98;;;7.40;99.90;;;;;;4898322;29;20218;-71
2021/03/06 13:55:29;;;;;;;1.63;1.50;;;7.50;99.90;;;;;;4898015;29;20297;-72
2021/03/06 13:57:55;;;;;;;1.95;1.65;;;7.70;99.90;;;;;;4898140;29;20199;-72
2021/03/06 14:00:21;;;;;;;1.92;1.83;;;7.80;99.90;;;;;;4897446;29;20634;-71
2021/03/06 14:02:48;;;;;;;5.03;1.33;;;7.80;99.90;;;;;;4897838;29;20219;-71
2021/03/06 14:05:15;;;;;;;10.68;7.72;;;7.80;99.90;;;;;;4898829;29;20228;-71
2021/03/06 14:07:41;;;;;;;1.67;1.25;;;7.70;99.90;;;;;;4898560;29;20588;-72
2021/03/06 14:10:08;;;;;;;2.85;1.30;;;7.60;99.90;;;;;;4897504;29;20219;-70
2021/03/06 14:12:35;;;;;;;1.40;1.30;;;7.60;99.90;;;;;;4897756;29;20238;-71
2021/03/06 14:15:02;;;;;;;1.60;1.60;;;7.50;99.90;;;;;;4897979;29;20215;-71
2021/03/06 14:17:29;;;;;;;4.63;1.63;;;7.50;99.90;;;;;;4898180;29;20218;-71
2021/03/06 14:19:55;;;;;;;2.30;1.25;;;7.50;99.90;;;;;;4898354;29;20207;-71
2021/03/06 14:22:22;;;;;;;1.75;1.50;;;7.50;99.90;;;;;;4884287;29;20254;-71
2021/03/06 14:24:48;;;;;;;3.42;1.65;;;7.50;99.90;;;;;;4898545;29;20298;-71
2021/03/06 14:27:14;;;;;;;2.30;2.10;;;7.50;99.90;;;;;;4898182;29;20223;-71
2021/03/06 14:29:40;;;;;;;1.83;1.73;;;7.50;99.90;;;;;;4897789;29;20234;-71
2021/03/06 14:32:08;;;;;;;2.25;1.75;;;7.70;99.90;;;;;;4897755;29;20235;-71
2021/03/06 14:34:34;;;;;;;1.70;1.60;;;7.80;99.90;;;;;;4897448;29;20207;-71
2021/03/06 14:37:00;;;;;;;2.65;1.30;;;7.80;99.90;;;;;;4897891;29;20266;-71
2021/03/06 14:39:27;;;;;;;2.47;2.03;;;7.70;99.90;;;;;;4895609;29;20214;-71
2021/03/06 14:41:53;;;;;;;2.05;1.52;;;7.80;99.90;;;;;;4897909;29;20569;-71
2021/03/06 14:44:20;;;;;;;2.22;1.77;;;7.80;99.90;;;;;;4896406;29;20214;-71
2021/03/06 14:46:46;;;;;;;1.80;1.70;;;7.70;99.90;;;;;;4897134;29;20211;-71
2021/03/06 14:49:12;;;;;;;2.10;1.42;;;7.60;99.90;;;;;;4896335;29;20651;-71
2021/03/06 14:51:38;;;;;;;2.88;2.08;;;7.50;99.90;;;;;;4897267;29;20720;-71
2021/03/06 14:54:05;;;;;;;1.45;1.45;;;7.40;99.90;;;;;;4895811;29;20215;-69
2021/03/06 14:56:33;;;;;;;3.10;2.90;;;7.40;99.90;;;;;;4893921;29;20283;-70
2021/03/06 14:58:59;;;;;;;1.70;1.60;;;7.40;99.90;;;;;;4896651;29;20293;-69
2021/03/06 15:01:25;;;;;;;3.80;1.90;;;7.40;99.90;;;;;;4896522;29;20724;-70
2021/03/06 15:03:52;;;;;;;2.00;1.88;;;7.40;99.90;;;;;;4896067;29;20537;-70
2021/03/06 15:06:18;;;;;;;2.97;1.83;;;7.40;99.90;;;;;;4896952;29;20211;-70
2021/03/06 15:08:44;;;;;;;2.00;2.00;;;7.30;99.90;;;;;;4896905;29;20579;-69
2021/03/06 15:11:10;;;;;;;2.55;2.35;;;7.30;99.90;;;;;;4897353;29;20615;-69
2021/03/06 15:13:37;;;;;;;2.72;1.92;;;7.20;99.90;;;;;;4896780;29;20215;-69
2021/03/06 15:16:04;;;;;;;3.95;3.63;;;7.20;99.90;;;;;;4896232;29;20211;-69
2021/03/06 15:18:30;;;;;;;5.88;3.20;;;7.20;99.90;;;;;;4884339;29;20279;-69
2021/03/06 15:20:56;;;;;;;6.30;3.53;;;7.20;99.90;;;;;;4894909;29;20223;-69
2021/03/06 15:23:22;;;;;;;1.88;1.77;;;7.20;99.90;;;;;;4896527;29;20232;-69
2021/03/06 15:25:48;;;;;;;1.50;1.50;;;7.20;99.90;;;;;;4895361;29;20207;-69
2021/03/06 15:28:14;;;;;;;2.10;2.00;;;7.20;99.90;;;;;;4896705;29;20219;-69
2021/03/06 15:30:41;;;;;;;4.10;1.55;;;7.20;99.90;;;;;;4897042;29;20257;-68
2021/03/06 15:33:08;;;;;;;1.92;1.83;;;7.10;99.90;;;;;;4896657;29;20218;-69
2021/03/06 15:35:34;;;;;;;3.15;2.88;;;7.20;99.90;;;;;;4896607;29;20230;-69
2021/03/06 15:38:01;;;;;;;2.40;2.30;;;7.10;99.90;;;;;;4895714;29;20207;-69
2021/03/06 15:40:28;;;;;;;2.53;1.67;;;7.10;99.90;;;;;;4896970;29;20321;-68
2021/03/06 15:42:54;;;;;;;3.67;3.38;;;7.10;99.90;;;;;;4896191;29;20259;-69
2021/03/06 15:45:21;;;;;;;3.03;2.92;;;7.10;99.90;;;;;;4893410;29;20252;-69
2021/03/06 15:47:49;;;;;;;4.00;3.60;;;7.10;99.90;;;;;;4895999;29;20231;-68
2021/03/06 15:50:15;;;;;;;3.10;3.00;;;7.10;99.90;;;;;;4892566;29;20271;-69
2021/03/06 15:52:41;;;;;;;2.67;2.45;;;7.00;99.90;;;;;;4895705;29;20211;-69
2021/03/06 15:55:09;;;;;;;3.42;2.42;;;7.00;99.90;;;;;;4892987;29;20211;-68
2021/03/06 15:57:35;;;;;;;3.33;2.50;;;7.00;99.90;;;;;;4889192;29;20223;-68
2021/03/06 16:00:02;;;;;;;2.28;2.10;;;6.90;99.90;;;;;;4877921;29;20288;-68
2021/03/06 16:02:28;;;;;;;4.25;2.67;;;6.90;99.90;;;;;;4877859;29;20623;-68
2021/03/06 16:04:55;;;;;;;7.50;6.90;;;6.90;99.90;;;;;;4885166;29;20226;-68
2021/03/06 16:07:22;;;;;;;22.38;21.17;;;6.90;99.90;;;;;;4896643;29;20607;-68
2021/03/06 16:09:48;;;;;;;6.70;3.97;;;6.80;99.90;;;;;;4895712;29;20705;-69
2021/03/06 16:12:14;;;;;;;2.65;2.28;;;6.80;99.90;;;;;;4895443;29;20374;-69
2021/03/06 16:14:40;;;;;;;3.35;1.40;;;6.80;99.90;;;;;;4896064;29;20211;-69
2021/03/06 16:17:07;;;;;;;5.07;1.95;;;6.70;99.90;;;;;;4894875;29;20215;-70
2021/03/06 16:19:33;;;;;;;1.92;1.83;;;6.70;99.90;;;;;;4895719;29;20207;-69
2021/03/06 16:22:00;;;;;;;2.85;2.75;;;6.70;99.90;;;;;;4895842;29;20242;-69
2021/03/06 16:24:26;;;;;;;3.78;2.75;;;6.60;99.90;;;;;;4884971;29;20339;-69
2021/03/06 16:26:53;;;;;;;3.53;3.28;;;6.60;99.90;;;;;;4880500;29;20234;-70
2021/03/06 16:29:20;;;;;;;3.28;3.03;;;6.50;99.90;;;;;;4889500;29;20618;-69
2021/03/06 16:31:46;;;;;;;2.80;2.60;;;6.50;99.90;;;;;;4890750;29;20258;-68
2021/03/06 16:34:12;;;;;;;2.33;2.17;;;6.40;99.90;;;;;;4895662;29;20211;-69
2021/03/06 16:36:39;;;;;;;2.53;1.90;;;6.40;99.90;;;;;;4892601;29;20211;-69
2021/03/06 16:39:06;;;;;;;2.67;1.38;;;6.30;99.90;;;;;;4877313;29;20214;-69
2021/03/06 16:41:33;;;;;;;18.20;17.33;;;6.30;99.90;;;;;;4885199;29;20291;-69
2021/03/06 16:44:03;;;;;;;6.57;6.28;;;6.20;99.90;;;;;;4894640;29;20229;-69
2021/03/06 16:46:32;;;;;;;2.47;2.28;;;6.20;99.90;;;;;;4894733;29;20220;-68
2021/03/06 16:48:58;;;;;;;1.90;1.80;;;6.20;99.90;;;;;;4895501;29;20308;-68
2021/03/06 16:51:25;;;;;;;8.40;2.30;;;6.10;99.90;;;;;;4895986;29;20227;-68
2021/03/06 16:53:51;;;;;;;2.00;1.90;;;6.10;99.90;;;;;;4894064;29;20219;-68
2021/03/06 16:56:19;;;;;;;2.95;2.75;;;6.10;99.90;;;;;;4891209;29;20227;-68
2021/03/06 16:58:46;;;;;;;2.40;2.20;;;6.10;99.90;;;;;;4885080;29;20212;-69
2021/03/06 17:01:12;;;;;;;8.73;4.75;;;6.00;99.90;;;;;;4894892;29;20238;-69
2021/03/06 17:03:38;;;;;;;3.78;3.53;;;6.00;99.90;;;;;;4895906;29;20215;-68
2021/03/06 17:06:05;;;;;;;3.00;1.95;;;6.00;99.90;;;;;;4895122;29;20318;-69
2021/03/06 17:08:31;;;;;;;3.53;2.70;;;5.90;99.90;;;;;;4898816;29;20646;-69
2021/03/06 17:10:57;;;;;;;3.40;2.40;;;5.90;99.90;;;;;;4887356;29;20295;-68
2021/03/06 17:13:24;;;;;;;5.28;3.75;;;5.90;99.90;;;;;;4895564;29;20219;-68
2021/03/06 17:15:51;;;;;;;5.60;3.72;;;5.90;99.90;;;;;;4898668;29;20207;-69
2021/03/06 17:18:17;;;;;;;12.52;4.20;;;5.80;99.90;;;;;;4897746;29;20222;-69
2021/03/06 17:20:43;;;;;;;5.00;4.50;;;5.80;99.90;;;;;;4895467;29;20231;-68
2021/03/06 17:23:09;;;;;;;8.07;4.40;;;5.80;99.90;;;;;;4881965;29;20646;-68
2021/03/06 17:25:35;;;;;;;3.30;3.05;;;5.80;99.90;;;;;;4896508;29;20203;-68
2021/03/06 17:28:02;;;;;;;2.40;2.30;;;5.80;99.90;;;;;;4891048;29;20576;-68
2021/03/06 17:30:29;;;;;;;5.05;3.42;;;5.70;99.90;;;;;;4897121;29;20227;-69
2021/03/06 17:32:55;;;;;;;3.53;3.22;;;5.70;99.90;;;;;;4895347;29;20287;-70
2021/03/06 17:35:21;;;;;;;2.30;2.20;;;5.70;99.90;;;;;;4894783;29;20203;-70
2021/03/06 17:37:47;;;;;;;4.45;2.63;;;5.70;99.90;;;;;;4894968;29;20207;-70
2021/03/06 17:40:14;;;;;;;6.68;3.60;;;5.70;99.90;;;;;;4897254;29;20215;-70
2021/03/06 17:42:41;;;;;;;3.92;3.65;;;5.60;99.90;;;;;;4896509;29;20219;-70
2021/03/06 17:45:09;;;;;;;2.70;2.60;;;5.60;99.90;;;;;;4897020;29;20207;-69
2021/03/06 17:47:36;;;;;;;6.70;3.63;;;5.60;99.90;;;;;;4897485;29;20207;-69
2021/03/06 17:50:03;;;;;;;8.15;4.07;;;5.60;99.90;;;;;;4897171;29;20219;-70
2021/03/06 17:52:29;;;;;;;4.03;3.65;;;5.50;99.90;;;;;;4896608;29;20238;-70
2021/03/06 17:54:55;;;;;;;3.85;3.55;;;5.60;99.90;;;;;;4897387;29;20223;-70
2021/03/06 17:57:21;;;;;;;2.80;2.70;;;5.60;99.90;;;;;;4897269;29;20199;-70
2021/03/06 17:59:48;;;;;;;3.55;3.35;;;5.60;99.90;;;;;;4897120;29;20322;-70
2021/03/06 18:02:14;;;;;;;11.95;8.63;;;5.50;99.90;;;;;;4896427;29;20231;-70